Time;durP1;ratioP1;P1;durP2;ratioP2;P2;SDS_P1;SDS_P2;PMS_P1;PMS_P2;Temp;Humidity;BMP_temperature;BMP_pressure;BME280_temperature;BME280_humidity;BME280_pressure;Samples;Min_cycle;Max_cycle;Signal;HPM_P1;HPM_P2
2021/04/20 00:02:39;;;;;;;25.83;19.20;;;4.10;98.80;;;;;;6224589;28;20049;-77
2021/04/20 00:05:40;;;;;;;25.20;19.50;;;4.00;98.80;;;;;;6224194;28;20129;-77
2021/04/20 00:08:41;;;;;;;26.70;19.83;;;4.00;98.80;;;;;;6224266;28;20057;-77
2021/04/20 00:11:43;;;;;;;32.00;19.80;;;3.90;98.70;;;;;;6224008;28;20063;-77
2021/04/20 00:14:45;;;;;;;29.60;19.15;;;3.90;98.70;;;;;;6224362;28;20218;-76
2021/04/20 00:17:47;;;;;;;24.67;18.45;;;3.80;98.70;;;;;;6224102;28;20579;-77
2021/04/20 00:20:48;;;;;;;29.80;20.17;;;3.80;98.90;;;;;;6223667;28;20056;-77
2021/04/20 00:23:49;;;;;;;31.05;20.80;;;3.80;98.70;;;;;;6223609;28;20155;-76
2021/04/20 00:26:51;;;;;;;28.63;22.05;;;3.70;98.60;;;;;;6224229;28;20077;-77
2021/04/20 00:29:53;;;;;;;33.53;19.97;;;3.70;98.70;;;;;;6223377;28;20476;-76
2021/04/20 00:32:54;;;;;;;27.57;21.13;;;3.70;98.80;;;;;;6223284;28;20076;-76
2021/04/20 00:35:56;;;;;;;32.67;20.70;;;3.60;98.60;;;;;;6223258;28;20128;-76
2021/04/20 00:38:57;;;;;;;25.73;19.57;;;3.60;98.70;;;;;;6223753;28;20053;-76
2021/04/20 00:42:03;;;;;;;29.30;20.27;;;3.70;98.80;;;;;;6222597;28;20046;-76
2021/04/20 00:45:07;;;;;;;29.80;20.97;;;3.60;98.60;;;;;;6223377;28;20176;-76
2021/04/20 00:48:09;;;;;;;29.53;19.63;;;3.70;98.60;;;;;;6223068;28;20559;-76
2021/04/20 00:51:10;;;;;;;29.67;20.23;;;3.70;98.70;;;;;;6223186;28;20123;-76
2021/04/20 00:54:12;;;;;;;26.40;19.87;;;3.60;98.40;;;;;;6222943;28;20054;-76
2021/04/20 00:57:16;;;;;;;26.80;18.20;;;3.60;98.50;;;;;;6221973;28;20546;-76
2021/04/20 01:00:20;;;;;;;29.90;21.13;;;3.60;98.50;;;;;;6244809;28;20091;-76
2021/04/20 01:03:21;;;;;;;29.60;20.83;;;3.60;98.70;;;;;;6248175;28;20052;-76
2021/04/20 01:06:23;;;;;;;25.27;19.13;;;3.60;98.70;;;;;;6246978;28;20136;-77
2021/04/20 01:09:24;;;;;;;25.23;20.03;;;3.70;98.80;;;;;;6247588;28;20049;-76
2021/04/20 01:12:25;;;;;;;28.00;20.87;;;3.80;98.60;;;;;;6246354;28;20532;-76
2021/04/20 01:15:28;;;;;;;25.97;18.40;;;3.80;98.40;;;;;;6247296;28;20081;-76
2021/04/20 01:18:31;;;;;;;23.13;17.05;;;3.80;98.40;;;;;;6247777;28;20060;-76
2021/04/20 01:21:34;;;;;;;32.13;19.13;;;3.80;98.40;;;;;;6246344;28;20068;-76
2021/04/20 01:24:37;;;;;;;27.33;20.17;;;3.70;98.40;;;;;;6246810;28;20140;-76
2021/04/20 01:27:39;;;;;;;26.97;17.83;;;3.70;98.60;;;;;;6246638;28;20132;-76
2021/04/20 01:30:41;;;;;;;29.30;20.75;;;3.60;98.70;;;;;;6246664;28;20136;-76
2021/04/20 01:33:43;;;;;;;27.77;20.70;;;3.60;98.80;;;;;;6246556;28;20075;-76
2021/04/20 01:36:44;;;;;;;29.02;18.63;;;3.60;99.00;;;;;;6245811;28;20414;-76
2021/04/20 01:39:48;;;;;;;26.97;18.77;;;3.50;99.00;;;;;;6246537;28;20594;-77
2021/04/20 01:42:50;;;;;;;29.13;17.37;;;3.50;99.30;;;;;;6246938;28;20125;-77
2021/04/20 01:45:51;;;;;;;26.53;19.13;;;3.40;99.20;;;;;;6246595;28;20041;-76
2021/04/20 01:48:52;;;;;;;30.70;19.23;;;3.30;99.30;;;;;;6246642;28;20132;-76
2021/04/20 01:51:54;;;;;;;26.27;19.30;;;3.30;99.50;;;;;;6246266;28;20069;-76
2021/04/20 01:54:56;;;;;;;31.80;20.27;;;3.20;99.50;;;;;;6246766;28;20181;-76
2021/04/20 01:57:58;;;;;;;30.33;19.53;;;3.20;99.60;;;;;;6246349;28;20157;-76
2021/04/20 02:01:04;;;;;;;31.97;19.10;;;3.10;99.90;;;;;;6245788;28;20118;-76
2021/04/20 02:04:05;;;;;;;27.80;17.87;;;3.00;99.60;;;;;;6246213;28;20448;-76
2021/04/20 02:07:06;;;;;;;25.37;18.97;;;3.00;99.60;;;;;;6246428;28;20487;-76
2021/04/20 02:10:13;;;;;;;28.70;19.77;;;2.90;99.70;;;;;;6246092;28;20128;-76
2021/04/20 02:13:15;;;;;;;35.20;20.37;;;2.80;99.80;;;;;;6246258;28;20086;-76
2021/04/20 02:16:17;;;;;;;29.50;19.07;;;2.80;99.90;;;;;;6246228;28;20125;-77
2021/04/20 02:19:19;;;;;;;27.37;19.07;;;2.80;99.90;;;;;;6246404;28;20493;-76
2021/04/20 02:22:21;;;;;;;29.40;18.97;;;2.80;99.90;;;;;;6245510;28;20179;-76
2021/04/20 02:25:24;;;;;;;24.00;18.50;;;2.80;99.90;;;;;;6245950;28;20128;-76
2021/04/20 02:28:25;;;;;;;29.20;19.53;;;2.70;99.80;;;;;;6245938;28;20181;-76
2021/04/20 02:31:27;;;;;;;27.70;19.57;;;2.70;99.80;;;;;;6245300;28;20559;-77
2021/04/20 02:34:29;;;;;;;28.60;18.90;;;2.70;99.90;;;;;;6246306;28;20118;-77
2021/04/20 02:37:30;;;;;;;30.53;21.10;;;2.60;99.90;;;;;;6271360;22;20054;-77
2021/04/20 02:40:35;;;;;;;26.13;21.33;;;2.60;99.90;;;;;;6248039;28;20048;-78
2021/04/20 02:43:38;;;;;;;28.50;21.10;;;2.60;99.90;;;;;;6248565;28;20056;-78
2021/04/20 02:46:42;;;;;;;29.07;18.07;;;2.60;99.90;;;;;;6274767;28;20057;-77
2021/04/20 02:49:43;;;;;;;32.47;20.03;;;2.60;99.90;;;;;;6281946;28;20037;-78
2021/04/20 02:52:48;;;;;;;28.00;20.27;;;2.60;99.90;;;;;;6282745;28;20033;-78
2021/04/20 02:55:50;;;;;;;28.67;19.37;;;2.50;99.90;;;;;;6282376;28;20065;-77
2021/04/20 02:58:52;;;;;;;32.37;19.70;;;2.50;99.90;;;;;;6283138;28;20046;-77
2021/04/20 03:01:53;;;;;;;31.37;21.40;;;2.40;99.90;;;;;;6279531;28;20059;-77
2021/04/20 03:04:55;;;;;;;30.13;21.47;;;2.40;99.90;;;;;;6282475;28;20056;-77
2021/04/20 03:07:56;;;;;;;29.57;19.97;;;2.40;99.90;;;;;;6281252;28;20030;-77
2021/04/20 03:11:04;;;;;;;32.27;19.07;;;2.40;99.90;;;;;;6280759;28;20068;-77
2021/04/20 03:14:06;;;;;;;31.33;22.38;;;2.30;99.90;;;;;;6255066;28;20499;-77
2021/04/20 03:17:08;;;;;;;33.10;22.10;;;2.30;99.90;;;;;;6252478;28;20527;-77
2021/04/20 03:20:10;;;;;;;36.13;21.57;;;2.30;99.90;;;;;;6251754;28;20509;-77
2021/04/20 03:23:12;;;;;;;36.93;22.37;;;2.20;99.90;;;;;;6250606;28;20045;-77
2021/04/20 03:26:33;;;;;;;33.93;23.73;;;2.20;99.90;;;;;;6250694;28;20042;-77
2021/04/20 03:29:34;;;;;;;31.40;20.37;;;2.20;99.90;;;;;;6250719;28;20137;-77
2021/04/20 03:32:38;;;;;;;33.33;21.00;;;2.10;99.90;;;;;;6250294;28;20414;-77
2021/04/20 03:35:52;;;;;;;33.20;19.40;;;2.10;99.90;;;;;;6250698;28;20084;-77
2021/04/20 03:38:58;;;;;;;30.10;20.53;;;2.10;99.90;;;;;;6251336;28;20060;-77
2021/04/20 03:42:04;;;;;;;32.80;20.37;;;2.10;99.90;;;;;;6249599;28;20056;-77
2021/04/20 03:45:08;;;;;;;33.57;21.47;;;2.00;99.90;;;;;;6250527;28;20079;-77
2021/04/20 03:48:15;;;;;;;29.17;18.97;;;2.00;99.90;;;;;;6250576;28;20132;-77
2021/04/20 03:51:23;;;;;;;29.63;20.00;;;2.00;99.90;;;;;;6249936;28;20056;-77
2021/04/20 03:54:25;;;;;;;;;;;2.00;99.90;;;;;;6250610;28;20100;-77
2021/04/20 03:57:28;;;;;;;28.67;19.73;;;2.00;99.90;;;;;;6250132;28;19921;-78
2021/04/20 04:00:30;;;;;;;29.87;20.70;;;2.00;99.90;;;;;;6249126;28;20132;-77
2021/04/20 04:03:31;;;;;;;36.37;22.90;;;1.90;99.90;;;;;;6249912;28;20069;-78
2021/04/20 04:06:36;;;;;;;24.03;17.93;;;1.90;99.90;;;;;;6250993;28;20060;-77
2021/04/20 04:09:39;;;;;;;40.27;21.33;;;1.90;99.90;;;;;;6249791;28;20417;-77
2021/04/20 04:12:43;;;;;;;31.17;21.37;;;1.90;99.90;;;;;;6249300;28;20132;-77
2021/04/20 04:15:45;;;;;;;47.33;26.20;;;1.90;99.90;;;;;;6249625;28;20124;-78
2021/04/20 04:18:50;;;;;;;33.50;25.13;;;1.90;99.90;;;;;;6250043;28;20173;-78
2021/04/20 04:21:55;;;;;;;29.13;19.47;;;2.00;99.90;;;;;;6248509;28;20072;-77
2021/04/20 04:24:58;;;;;;;30.00;20.30;;;2.10;99.90;;;;;;6249763;28;20176;-78
2021/04/20 04:28:01;;;;;;;31.37;19.67;;;2.30;99.90;;;;;;6249429;28;20530;-77
2021/04/20 04:31:04;;;;;;;30.77;19.43;;;2.60;99.90;;;;;;6249161;28;20072;-78
2021/04/20 04:34:06;;;;;;;32.40;16.87;;;2.80;99.90;;;;;;6249056;28;20042;-78
2021/04/20 04:37:10;;;;;;;27.07;18.23;;;3.20;99.90;;;;;;6249048;28;20045;-78
2021/04/20 04:40:12;;;;;;;30.73;16.90;;;3.30;99.60;;;;;;6249217;28;20545;-78
2021/04/20 04:43:15;;;;;;;37.10;16.80;;;3.40;97.40;;;;;;6249049;28;20077;-78
2021/04/20 04:46:17;;;;;;;33.43;18.77;;;3.00;96.80;;;;;;6248809;28;20525;-78
2021/04/20 04:49:19;;;;;;;32.57;18.03;;;2.70;97.00;;;;;;6249056;28;20076;-78
2021/04/20 04:52:22;;;;;;;30.27;19.37;;;2.60;97.40;;;;;;6248363;28;20099;-77
2021/04/20 04:55:23;;;;;;;37.47;21.13;;;2.50;97.50;;;;;;6248561;28;20088;-77
2021/04/20 04:58:27;;;;;;;45.47;21.40;;;2.40;97.60;;;;;;6249436;28;20136;-78
2021/04/20 05:01:29;;;;;;;29.27;17.37;;;2.50;97.80;;;;;;6247782;28;20137;-77
2021/04/20 05:04:30;;;;;;;31.80;20.13;;;2.60;97.60;;;;;;6248456;28;20091;-78
2021/04/20 05:07:32;;;;;;;33.10;19.77;;;2.60;97.40;;;;;;6248109;28;20132;-78
2021/04/20 05:10:34;;;;;;;25.03;17.10;;;2.60;97.50;;;;;;6248596;28;20084;-78
2021/04/20 05:13:36;;;;;;;27.77;18.67;;;2.70;97.40;;;;;;6247622;28;20076;-78
2021/04/20 05:16:39;;;;;;;25.03;19.33;;;2.80;97.20;;;;;;6248498;28;20479;-78
2021/04/20 05:19:42;;;;;;;23.30;19.77;;;2.90;97.30;;;;;;6248854;28;20126;-78
2021/04/20 05:22:44;;;;;;;29.20;19.27;;;3.10;97.00;;;;;;6247716;28;20508;-78
2021/04/20 05:25:46;;;;;;;24.63;17.10;;;3.20;96.90;;;;;;6248439;28;20108;-78
2021/04/20 05:28:48;;;;;;;27.57;18.43;;;3.30;96.80;;;;;;6248497;28;20136;-78
2021/04/20 05:31:50;;;;;;;27.23;19.30;;;3.40;96.70;;;;;;6247917;28;20049;-78
2021/04/20 05:34:52;;;;;;;25.80;17.33;;;3.60;96.60;;;;;;6248760;28;20124;-78
2021/04/20 05:37:54;;;;;;;29.07;19.77;;;3.80;96.50;;;;;;6248490;28;20049;-78
2021/04/20 05:40:55;;;;;;;28.87;19.10;;;4.00;96.30;;;;;;6247169;28;20065;-78
2021/04/20 05:43:59;;;;;;;27.37;18.17;;;4.20;95.90;;;;;;6248331;28;20128;-78
2021/04/20 05:47:00;;;;;;;28.53;18.23;;;4.50;95.80;;;;;;6248120;28;20501;-78
2021/04/20 05:50:04;;;;;;;31.05;20.85;;;4.70;95.40;;;;;;6247836;28;20056;-78
2021/04/20 05:53:05;;;;;;;29.23;20.55;;;5.00;95.20;;;;;;6248010;28;20041;-78
2021/04/20 05:56:07;;;;;;;29.65;20.13;;;5.20;95.00;;;;;;6247845;28;20042;-78
2021/04/20 05:59:14;;;;;;;29.20;19.02;;;5.50;94.60;;;;;;6249806;28;20045;-78
2021/04/20 06:02:16;;;;;;;32.63;22.75;;;5.90;94.50;;;;;;6247029;28;20053;-78
2021/04/20 06:05:21;;;;;;;28.88;21.98;;;6.00;94.20;;;;;;6231872;28;20120;-78
2021/04/20 06:08:23;;;;;;;32.15;24.20;;;6.30;93.90;;;;;;6223714;28;20046;-77
2021/04/20 06:11:24;;;;;;;31.25;26.33;;;6.60;93.80;;;;;;6247123;28;20562;-77
2021/04/20 06:14:26;;;;;;;36.10;26.63;;;6.80;93.90;;;;;;6247847;28;20483;-77
2021/04/20 06:17:28;;;;;;;34.63;25.20;;;7.10;94.00;;;;;;6243012;28;20077;-77
2021/04/20 06:20:30;;;;;;;37.10;26.98;;;7.30;94.00;;;;;;6246559;28;20099;-76
2021/04/20 06:23:35;;;;;;;42.30;27.90;;;7.40;93.90;;;;;;6246880;28;20414;-76
2021/04/20 06:26:38;;;;;;;40.53;26.65;;;7.60;93.60;;;;;;6252721;28;20077;-76
2021/04/20 06:29:41;;;;;;;34.60;26.70;;;7.90;93.20;;;;;;6253622;28;20046;-76
2021/04/20 06:32:45;;;;;;;43.97;28.40;;;8.20;92.70;;;;;;6252547;28;20068;-75
2021/04/20 06:35:46;;;;;;;33.40;25.20;;;8.50;92.00;;;;;;6252455;28;20072;-77
2021/04/20 06:38:48;;;;;;;39.20;28.20;;;8.70;91.40;;;;;;6252202;28;20081;-77
2021/04/20 06:41:52;;;;;;;31.30;24.85;;;8.80;90.80;;;;;;6252030;28;20046;-77
2021/04/20 06:45:03;;;;;;;30.05;25.20;;;9.10;90.40;;;;;;6252027;28;20584;-76
2021/04/20 06:48:17;;;;;;;36.25;25.35;;;9.30;89.90;;;;;;6254274;28;20157;-77
2021/04/20 06:51:20;;;;;;;33.63;25.05;;;9.50;88.60;;;;;;6253033;28;20053;-77
2021/04/20 06:54:25;;;;;;;29.48;23.65;;;9.80;87.30;;;;;;6252725;28;20045;-77
2021/04/20 06:57:36;;;;;;;36.05;26.58;;;10.00;86.10;;;;;;6253330;28;20049;-76
2021/04/20 07:00:49;;;;;;;37.67;25.65;;;10.20;84.60;;;;;;6254801;28;20042;-76
2021/04/20 07:04:03;;;;;;;35.38;24.25;;;10.30;84.30;;;;;;6255532;28;20117;-77
2021/04/20 07:07:16;;;;;;;39.55;26.88;;;10.50;83.50;;;;;;6255569;28;20112;-77
2021/04/20 07:10:21;;;;;;;29.20;23.42;;;10.80;82.70;;;;;;6253455;28;20507;-76
2021/04/20 07:13:25;;;;;;;29.52;23.60;;;11.00;81.20;;;;;;6242945;28;20046;-77
2021/04/20 07:16:37;;;;;;;31.73;23.50;;;11.20;80.20;;;;;;6226497;28;20136;-77
2021/04/20 07:20:01;;;;;;;33.03;24.98;;;11.30;79.90;;;;;;6226803;28;20144;-77
2021/04/20 07:23:23;;;;;;;31.98;23.83;;;11.60;78.80;;;;;;6226175;28;20081;-76
2021/04/20 07:26:49;;;;;;;33.33;25.42;;;11.60;78.40;;;;;;6226418;28;20081;-77
2021/04/20 07:30:01;;;;;;;33.15;24.33;;;11.80;77.80;;;;;;6226026;28;20077;-77
2021/04/20 07:33:38;;;;;;;30.38;23.27;;;12.00;77.20;;;;;;6225347;28;20042;-77
2021/04/20 07:36:55;;;;;;;26.92;21.67;;;12.30;76.00;;;;;;6191883;28;20045;-77
2021/04/20 07:40:08;;;;;;;25.92;21.75;;;12.60;74.70;;;;;;6226154;28;20045;-77
2021/04/20 07:43:21;;;;;;;24.98;20.10;;;12.70;74.20;;;;;;6225667;28;20077;-76
2021/04/20 07:46:27;;;;;;;30.75;25.00;;;12.90;73.70;;;;;;6225116;28;20109;-76
2021/04/20 07:49:41;;;;;;;27.45;22.73;;;13.20;72.30;;;;;;6225713;28;20066;-77
2021/04/20 07:52:50;;;;;;;27.23;20.70;;;13.60;71.60;;;;;;6224398;28;20476;-76
2021/04/20 07:55:58;;;;;;;23.83;21.23;;;13.90;70.50;;;;;;6225898;28;20050;-77
2021/04/20 07:59:05;;;;;;;28.85;21.77;;;14.10;69.20;;;;;;6225863;28;20053;-77
2021/04/20 08:02:22;;;;;;;25.10;22.25;;;14.30;68.10;;;;;;6225159;28;20061;-76
2021/04/20 08:05:28;;;;;;;38.53;23.58;;;14.60;67.70;;;;;;6227193;28;20125;-77
2021/04/20 08:08:36;;;;;;;30.70;23.05;;;14.90;66.70;;;;;;6226463;28;20679;-78
2021/04/20 08:11:42;;;;;;;29.70;22.60;;;15.10;65.80;;;;;;6226438;28;20050;-78
2021/04/20 08:14:49;;;;;;;29.00;22.08;;;15.40;65.10;;;;;;6227541;28;20372;-78
2021/04/20 08:17:59;;;;;;;34.00;25.70;;;15.80;64.30;;;;;;6227387;28;20519;-78
2021/04/20 08:21:04;;;;;;;31.92;24.65;;;15.90;62.40;;;;;;6227022;28;20107;-78
2021/04/20 08:24:07;;;;;;;33.00;25.00;;;15.90;61.90;;;;;;6228960;28;20061;-78
2021/04/20 08:27:15;;;;;;;30.20;24.83;;;16.00;62.30;;;;;;6226540;28;20136;-76
2021/04/20 08:30:21;;;;;;;28.20;22.38;;;16.30;60.60;;;;;;6227276;28;20050;-78
2021/04/20 08:33:29;;;;;;;26.65;21.75;;;16.30;59.60;;;;;;6225358;28;20046;-77
2021/04/20 08:36:37;;;;;;;27.63;20.08;;;16.50;59.30;;;;;;6250877;23;20042;-77
2021/04/20 08:39:40;;;;;;;;;;;16.70;57.90;;;;;;6247949;28;20140;-77
2021/04/20 08:42:49;;;;;;;24.00;18.92;;;16.50;58.20;;;;;;6246121;28;20324;-77
2021/04/20 08:45:59;;;;;;;28.05;22.10;;;16.50;58.60;;;;;;6246955;28;20715;-77
2021/04/20 08:49:09;;;;;;;21.40;17.25;;;16.70;57.70;;;;;;6246922;28;20069;-77
2021/04/20 08:52:27;;;;;;;19.90;16.60;;;16.80;57.30;;;;;;6245879;28;20478;-77
2021/04/20 08:55:39;;;;;;;20.88;17.20;;;17.10;56.40;;;;;;6246869;28;20491;-77
2021/04/20 08:59:13;;;;;;;21.23;17.02;;;17.40;56.00;;;;;;6245927;28;20064;-77
2021/04/20 09:02:35;;;;;;;22.55;17.25;;;17.70;54.80;;;;;;6245795;28;20084;-79
2021/04/20 09:05:44;;;;;;;21.95;16.08;;;17.90;54.00;;;;;;6247154;28;20431;-77
2021/04/20 09:08:50;;;;;;;23.83;17.25;;;18.00;53.50;;;;;;6246086;28;20052;-78
2021/04/20 09:11:58;;;;;;;18.83;16.85;;;17.60;53.90;;;;;;6245988;28;20128;-77
2021/04/20 09:15:02;;;;;;;15.98;14.27;;;17.60;54.40;;;;;;6247351;28;20483;-78
2021/04/20 09:18:06;;;;;;;17.88;15.27;;;17.90;53.10;;;;;;6246926;28;20529;-79
2021/04/20 09:21:16;;;;;;;19.13;15.35;;;18.10;52.70;;;;;;6247701;28;20060;-78
2021/04/20 09:24:20;;;;;;;16.95;13.73;;;18.30;50.90;;;;;;6246399;28;20049;-78
2021/04/20 09:27:27;;;;;;;16.70;13.10;;;18.40;50.60;;;;;;6246240;28;20099;-78
2021/04/20 09:30:35;;;;;;;17.42;13.52;;;18.50;49.50;;;;;;6247774;28;20072;-78
2021/04/20 09:33:41;;;;;;;15.23;11.63;;;18.20;49.90;;;;;;6237348;28;20112;-78
2021/04/20 09:36:43;;;;;;;15.05;12.70;;;18.20;49.20;;;;;;6245778;28;20129;-78
2021/04/20 09:39:48;;;;;;;14.13;11.48;;;18.20;50.00;;;;;;6246286;28;20124;-77
2021/04/20 09:42:55;;;;;;;17.92;13.65;;;18.30;49.60;;;;;;6246079;28;20049;-77
2021/04/20 09:46:04;;;;;;;15.05;12.70;;;18.50;48.60;;;;;;6245421;28;20060;-77
2021/04/20 09:49:12;;;;;;;17.05;13.40;;;18.10;49.50;;;;;;6246150;28;20551;-77
2021/04/20 09:52:17;;;;;;;17.15;14.52;;;18.00;50.00;;;;;;6245362;28;20133;-76
2021/04/20 09:55:27;;;;;;;21.95;14.10;;;18.30;49.70;;;;;;6246153;28;20102;-76
2021/04/20 09:58:31;;;;;;;16.90;15.10;;;18.60;49.60;;;;;;6244660;28;20149;-77
2021/04/20 10:01:50;;;;;;;23.98;17.60;;;18.90;50.50;;;;;;6244513;28;20498;-77
2021/04/20 10:05:04;;;;;;;19.88;17.52;;;19.20;49.90;;;;;;6245626;28;20069;-77
2021/04/20 10:08:27;;;;;;;15.23;13.60;;;19.20;49.30;;;;;;6244963;28;20506;-79
2021/04/20 10:11:40;;;;;;;13.68;11.95;;;18.80;49.00;;;;;;6244853;28;20101;-79
2021/04/20 10:14:52;;;;;;;14.38;12.88;;;18.90;49.10;;;;;;6246033;28;20050;-78
2021/04/20 10:18:02;;;;;;;15.77;13.07;;;19.30;48.50;;;;;;6245196;28;20069;-78
2021/04/20 10:21:09;;;;;;;17.67;14.15;;;19.80;48.00;;;;;;6244472;28;20427;-77
2021/04/20 10:24:18;;;;;;;18.17;13.80;;;20.10;46.70;;;;;;6245279;28;20518;-77
2021/04/20 10:27:24;;;;;;;15.20;13.07;;;20.20;46.60;;;;;;6246408;28;20136;-78
2021/04/20 10:30:30;;;;;;;14.85;12.77;;;20.00;46.40;;;;;;6245946;28;20132;-77
2021/04/20 10:33:32;;;;;;;12.68;11.25;;;19.70;47.20;;;;;;6244004;28;20534;-78
2021/04/20 10:36:34;;;;;;;14.80;13.23;;;19.50;47.90;;;;;;6244737;28;20077;-77
2021/04/20 10:39:36;;;;;;;11.55;10.35;;;19.40;47.30;;;;;;6245225;28;20144;-77
2021/04/20 10:42:40;;;;;;;14.60;12.18;;;19.40;48.30;;;;;;6244893;28;20140;-77
2021/04/20 10:45:42;;;;;;;14.80;13.30;;;19.20;46.60;;;;;;6245644;28;20512;-77
2021/04/20 10:48:47;;;;;;;17.33;13.77;;;19.00;48.10;;;;;;6236056;28;20124;-77
2021/04/20 10:51:54;;;;;;;17.08;14.85;;;19.00;49.30;;;;;;6242614;28;20151;-77
2021/04/20 10:54:59;;;;;;;24.93;17.97;;;19.10;49.80;;;;;;6245530;28;20384;-77
2021/04/20 10:58:04;;;;;;;15.20;13.25;;;19.00;50.00;;;;;;6244317;28;20387;-77
2021/04/20 11:01:06;;;;;;;14.68;13.07;;;18.90;50.60;;;;;;6243536;28;20107;-77
2021/04/20 11:04:09;;;;;;;14.68;11.50;;;18.70;49.60;;;;;;6243939;28;20128;-78
2021/04/20 11:07:18;;;;;;;20.73;16.10;;;18.80;50.80;;;;;;6244148;28;20493;-77
2021/04/20 11:10:25;;;;;;;17.55;15.35;;;19.10;49.80;;;;;;6247033;28;20079;-78
2021/04/20 11:13:37;;;;;;;19.37;16.90;;;19.40;49.10;;;;;;6249482;28;20057;-77
2021/04/20 11:16:43;;;;;;;22.05;16.90;;;19.20;49.30;;;;;;6249382;28;20512;-78
2021/04/20 11:19:47;;;;;;;19.85;15.63;;;19.20;49.40;;;;;;6250742;28;20053;-77
2021/04/20 11:22:53;;;;;;;20.05;15.52;;;19.30;49.30;;;;;;6249649;28;20046;-78
2021/04/20 11:25:59;;;;;;;21.80;14.98;;;19.30;48.60;;;;;;6248189;28;20053;-78
2021/04/20 11:29:07;;;;;;;20.65;15.75;;;19.30;48.90;;;;;;6248897;28;20149;-77
2021/04/20 11:32:11;;;;;;;16.10;13.98;;;19.20;48.40;;;;;;6246972;28;20045;-77
2021/04/20 11:35:16;;;;;;;20.15;13.63;;;19.20;48.50;;;;;;6248530;28;20454;-77
2021/04/20 11:38:19;;;;;;;18.08;13.98;;;19.60;47.60;;;;;;6247178;28;20084;-77
2021/04/20 11:41:28;;;;;;;22.30;17.38;;;20.10;47.00;;;;;;6246546;28;20427;-77
2021/04/20 11:44:35;;;;;;;14.85;13.43;;;20.40;45.90;;;;;;6249884;28;20045;-79
2021/04/20 11:47:47;;;;;;;15.50;12.10;;;20.70;44.90;;;;;;6250254;28;20057;-79
2021/04/20 11:50:53;;;;;;;13.77;12.38;;;21.00;44.20;;;;;;6238597;28;20851;-78
2021/04/20 11:53:55;;;;;;;14.60;11.75;;;21.40;43.40;;;;;;6250935;28;20157;-78
2021/04/20 11:57:00;;;;;;;16.88;12.40;;;21.70;42.70;;;;;;6250075;28;20128;-79
2021/04/20 12:00:04;;;;;;;17.65;11.27;;;21.90;41.90;;;;;;6250127;28;20077;-78
2021/04/20 12:03:12;;;;;;;15.75;11.98;;;22.00;42.40;;;;;;6249255;28;20380;-78
2021/04/20 12:06:14;;;;;;;;;;;22.00;41.80;;;;;;6249984;28;20466;-78
2021/04/20 12:09:19;;;;;;;15.07;11.88;;;21.70;42.00;;;;;;6249692;28;19971;-79
2021/04/20 12:12:27;;;;;;;10.18;9.18;;;21.20;41.70;;;;;;6250012;28;20041;-78
2021/04/20 12:15:30;;;;;;;16.42;11.65;;;20.80;42.80;;;;;;6250517;28;20132;-78
2021/04/20 12:18:33;;;;;;;14.73;11.00;;;20.70;43.30;;;;;;6250061;28;20049;-78
2021/04/20 12:21:38;;;;;;;12.15;9.45;;;20.70;43.30;;;;;;6247848;28;20096;-78
2021/04/20 12:24:42;;;;;;;11.23;10.05;;;20.80;43.40;;;;;;6249728;28;20045;-78
2021/04/20 12:27:47;;;;;;;11.23;9.90;;;21.00;43.00;;;;;;6248294;28;20184;-78
2021/04/20 12:30:50;;;;;;;11.40;10.30;;;21.20;42.20;;;;;;6249553;28;20096;-78
2021/04/20 12:33:51;;;;;;;15.35;10.75;;;21.30;41.70;;;;;;6248330;28;20042;-78
2021/04/20 12:36:55;;;;;;;11.32;10.13;;;21.40;42.10;;;;;;6248891;28;20088;-78
2021/04/20 12:40:01;;;;;;;12.23;10.32;;;21.40;42.40;;;;;;6249374;28;20046;-78
2021/04/20 12:43:04;;;;;;;11.60;9.27;;;21.40;42.20;;;;;;6247759;28;20503;-78
2021/04/20 12:46:09;;;;;;;10.95;9.85;;;21.70;41.40;;;;;;6248538;28;20057;-78
2021/04/20 12:49:11;;;;;;;10.60;8.32;;;21.80;41.30;;;;;;6248227;28;20123;-78
2021/04/20 12:52:18;;;;;;;9.32;8.40;;;21.60;41.40;;;;;;6243050;28;20511;-79
2021/04/20 12:55:24;;;;;;;10.27;8.82;;;21.30;40.90;;;;;;6250120;28;20152;-78
2021/04/20 12:58:29;;;;;;;10.20;8.65;;;20.90;41.80;;;;;;6249822;28;20061;-78
2021/04/20 13:01:32;;;;;;;10.80;9.70;;;20.60;41.90;;;;;;6247227;28;20499;-78
2021/04/20 13:04:35;;;;;;;9.45;8.50;;;20.60;42.10;;;;;;6247764;28;20507;-79
2021/04/20 13:07:37;;;;;;;10.07;8.77;;;20.90;41.60;;;;;;6248172;28;20180;-78
2021/04/20 13:10:39;;;;;;;9.18;8.20;;;20.90;41.40;;;;;;6249682;28;20157;-78
2021/04/20 13:13:42;;;;;;;12.93;9.38;;;20.80;41.50;;;;;;6245887;28;20113;-78
2021/04/20 13:16:44;;;;;;;9.43;8.50;;;20.80;41.80;;;;;;6247593;28;20187;-77
2021/04/20 13:19:49;;;;;;;9.98;8.98;;;21.00;41.90;;;;;;6247697;28;20503;-77
2021/04/20 13:22:50;;;;;;;10.23;8.52;;;21.30;41.40;;;;;;6247636;28;20050;-78
2021/04/20 13:25:57;;;;;;;10.45;7.93;;;21.50;41.20;;;;;;6247465;28;20129;-79
2021/04/20 13:29:06;;;;;;;10.50;9.07;;;21.60;40.40;;;;;;6247235;28;20129;-78
2021/04/20 13:32:09;;;;;;;9.15;8.15;;;21.30;39.90;;;;;;6246278;28;20123;-78
2021/04/20 13:35:16;;;;;;;9.65;7.32;;;21.00;41.20;;;;;;6246758;28;20046;-78
2021/04/20 13:38:17;;;;;;;11.32;7.95;;;20.90;41.30;;;;;;6246067;28;20168;-78
2021/04/20 13:41:21;;;;;;;9.00;8.13;;;20.70;41.50;;;;;;6246460;28;20088;-78
2021/04/20 13:44:26;;;;;;;8.32;7.13;;;20.60;41.70;;;;;;6250879;28;20120;-79
2021/04/20 13:47:29;;;;;;;10.57;8.27;;;20.70;41.80;;;;;;6250852;28;20053;-77
2021/04/20 13:50:34;;;;;;;13.55;8.82;;;20.40;41.30;;;;;;6245342;28;20136;-77
2021/04/20 13:53:40;;;;;;;10.02;8.73;;;19.80;42.90;;;;;;6226826;28;20041;-77
2021/04/20 13:56:42;;;;;;;8.82;7.88;;;19.60;43.90;;;;;;6221747;28;20046;-79
2021/04/20 13:59:49;;;;;;;9.95;8.65;;;19.40;43.50;;;;;;6224208;28;20053;-79
2021/04/20 14:02:59;;;;;;;9.57;7.53;;;19.10;45.00;;;;;;6223891;28;20087;-79
2021/04/20 14:06:06;;;;;;;7.40;6.57;;;19.10;44.30;;;;;;6223761;28;20061;-79
2021/04/20 14:09:12;;;;;;;9.43;8.50;;;19.10;44.60;;;;;;6224491;28;20065;-79
2021/04/20 14:12:20;;;;;;;9.95;6.97;;;19.60;43.80;;;;;;6224475;28;20130;-79
2021/04/20 14:15:27;;;;;;;8.07;6.43;;;20.30;42.50;;;;;;6224791;28;20054;-79
2021/04/20 14:18:29;;;;;;;7.40;6.13;;;20.80;41.30;;;;;;6221617;28;20220;-78
2021/04/20 14:21:34;;;;;;;9.70;7.57;;;21.10;41.30;;;;;;6220651;28;20143;-78
2021/04/20 14:24:38;;;;;;;7.75;6.28;;;21.20;39.90;;;;;;6223853;28;20065;-78
2021/04/20 14:27:40;;;;;;;9.20;6.18;;;21.30;39.50;;;;;;6222756;28;20104;-78
2021/04/20 14:30:43;;;;;;;7.22;6.05;;;21.30;39.70;;;;;;6225067;28;20087;-80
2021/04/20 14:33:46;;;;;;;7.28;6.50;;;21.30;39.50;;;;;;6220738;28;20526;-78
2021/04/20 14:36:55;;;;;;;6.93;6.10;;;21.30;39.60;;;;;;6247630;22;20597;-78
2021/04/20 14:39:57;;;;;;;9.15;7.07;;;21.20;39.80;;;;;;6232993;28;20382;-78
2021/04/20 14:43:00;;;;;;;10.20;8.38;;;21.20;39.80;;;;;;6232529;28;20049;-76
2021/04/20 14:46:03;;;;;;;8.75;7.85;;;21.10;40.50;;;;;;6230437;28;20425;-79
2021/04/20 14:49:07;;;;;;;8.90;8.00;;;20.90;40.50;;;;;;6232394;28;20130;-78
2021/04/20 14:52:15;;;;;;;6.47;5.88;;;20.70;40.40;;;;;;6230851;28;20042;-78
2021/04/20 14:55:17;;;;;;;9.15;7.03;;;20.50;41.00;;;;;;6210268;28;20542;-77
2021/04/20 14:58:25;;;;;;;8.02;5.93;;;20.30;40.30;;;;;;6210427;28;20138;-79
2021/04/20 15:01:30;;;;;;;10.48;7.35;;;20.00;41.50;;;;;;6210969;28;20691;-77
2021/04/20 15:04:33;;;;;;;8.23;6.13;;;19.90;41.60;;;;;;6213524;28;20057;-77
2021/04/20 15:07:38;;;;;;;7.72;6.57;;;19.90;42.00;;;;;;6209198;28;20300;-78
2021/04/20 15:10:45;;;;;;;7.30;6.05;;;19.60;41.20;;;;;;6212490;28;20100;-78
2021/04/20 15:13:53;;;;;;;7.32;6.10;;;19.40;42.00;;;;;;6209974;28;20065;-79
2021/04/20 15:16:57;;;;;;;12.52;6.63;;;19.30;42.80;;;;;;6222577;28;20046;-79
2021/04/20 15:20:00;;;;;;;8.02;6.05;;;19.30;42.80;;;;;;6220182;28;20046;-78
2021/04/20 15:23:04;;;;;;;8.95;7.18;;;19.30;42.70;;;;;;6216746;28;20054;-79
2021/04/20 15:26:06;;;;;;;9.27;6.10;;;19.20;42.90;;;;;;6212624;28;20131;-79
2021/04/20 15:29:10;;;;;;;8.82;6.93;;;18.90;43.70;;;;;;6209946;28;20054;-79
2021/04/20 15:32:21;;;;;;;8.48;6.57;;;18.80;44.00;;;;;;6210886;28;20074;-77
2021/04/20 15:35:29;;;;;;;8.70;7.68;;;18.90;44.30;;;;;;6211211;28;20101;-81
2021/04/20 15:38:33;;;;;;;8.10;6.93;;;18.90;44.10;;;;;;6209119;28;20078;-78
2021/04/20 15:41:39;;;;;;;9.27;7.63;;;18.90;44.10;;;;;;6206713;28;20065;-76
2021/04/20 15:44:49;;;;;;;11.68;10.45;;;18.90;44.30;;;;;;6210435;28;20062;-77
2021/04/20 15:47:52;;;;;;;11.20;10.02;;;19.00;43.80;;;;;;6211220;28;20038;-79
2021/04/20 15:50:56;;;;;;;9.52;7.35;;;19.10;43.70;;;;;;6213731;28;20397;-78